Jacksonville, Georgia
Current Conditions -  °F | °C
As of 11:15 AM on Sunday 25 Jan 2015 (Local Time) from KFZG Reporting Station
Clear Clear  
Wind Chill: 55°   Ceiling: Unl
Heat Index: 55°   Visibility: 10mi
Dew Point: 32°   Wind: 6mph
Humidity: 42%   Direction: 260°W
Pressure: 30.05"   Gusts: NA
Location:  31.81°N, 82.98°W
Report Text: KFZG 251615Z AUTO 26005KT 10SM CLR 13/00 A3005 RMK AO2 T01251001
Loading
Personal Weather Stations






























Interactive Weather Map New forecast layout! Learn more

10-Day Weather Forecast

Advertisements
Track Severe Weather on mobile